Time;durP1;ratioP1;P1;durP2;ratioP2;P2;SDS_P1;SDS_P2;PMS_P1;PMS_P2;Temp;Humidity;BMP_temperature;BMP_pressure;BME280_temperature;BME280_humidity;BME280_pressure;Samples;Min_cycle;Max_cycle;Signal;HPM_P1;HPM_P2
2021/08/14 00:00:51;;;;;;;10.20;8.75;;;;;;;19.40;68.82;99507.31;2619482;54;20078;-66
2021/08/14 00:03:21;;;;;;;10.00;8.77;;;;;;;19.36;69.10;99500.78;2619082;54;20057;-66
2021/08/14 00:05:51;;;;;;;10.98;8.20;;;;;;;19.43;69.27;99503.34;2619597;54;20042;-66
2021/08/14 00:08:20;;;;;;;8.93;8.02;;;;;;;19.48;69.06;99500.81;2619085;54;20553;-65
2021/08/14 00:10:50;;;;;;;9.07;7.63;;;;;;;19.51;68.68;99501.16;2618884;54;20057;-67
2021/08/14 00:13:19;;;;;;;12.80;8.15;;;;;;;19.42;68.89;99499.03;2618670;54;20050;-66
2021/08/14 00:15:49;;;;;;;13.05;8.18;;;;;;;19.32;69.33;99504.19;2618843;54;20026;-67
2021/08/14 00:18:20;;;;;;;10.05;8.50;;;;;;;19.27;69.18;99492.28;2618687;54;20051;-66
2021/08/14 00:20:49;;;;;;;10.93;9.00;;;;;;;19.32;69.67;99501.50;2619713;31;20514;-66
2021/08/14 00:23:19;;;;;;;10.25;8.35;;;;;;;19.34;69.18;99496.69;2619138;54;20086;-66
2021/08/14 00:25:49;;;;;;;12.32;8.35;;;;;;;19.35;69.02;99491.13;2618034;54;20054;-67
2021/08/14 00:28:18;;;;;;;9.52;8.13;;;;;;;19.32;69.54;99496.94;2618732;39;20446;-67
2021/08/14 00:30:48;;;;;;;11.65;8.35;;;;;;;19.27;69.23;99496.84;2621499;54;20560;-67
2021/08/14 00:33:19;;;;;;;10.00;8.93;;;;;;;19.22;68.93;99488.66;2622652;54;20034;-67
2021/08/14 00:35:49;;;;;;;11.25;8.77;;;;;;;19.13;69.67;99490.88;2622822;54;20082;-67
2021/08/14 00:38:18;;;;;;;10.30;9.27;;;;;;;19.05;69.81;99492.00;2623361;54;20034;-67
2021/08/14 00:40:48;;;;;;;11.27;8.82;;;;;;;18.97;70.16;99487.00;2623160;54;20038;-67
2021/08/14 00:43:17;;;;;;;13.27;8.88;;;;;;;18.82;70.19;99489.31;2623375;54;20569;-67
2021/08/14 00:45:47;;;;;;;10.07;8.60;;;;;;;18.83;70.54;99492.81;2622604;54;20070;-66
2021/08/14 00:48:36;;;;;;;9.40;8.40;;;;;;;18.82;70.85;99494.66;2623193;54;20065;-66
2021/08/14 00:51:08;;;;;;;9.63;7.85;;;;;;;18.92;70.10;99494.91;2621919;54;20089;-65
2021/08/14 00:53:38;;;;;;;11.30;8.90;;;;;;;18.91;70.32;99492.47;2619176;54;20545;-66
2021/08/14 00:56:08;;;;;;;8.55;7.68;;;;;;;18.88;69.99;99482.22;2618999;54;20038;-65
2021/08/14 00:58:38;;;;;;;12.90;8.27;;;;;;;18.89;70.08;99486.50;2618388;54;20026;-68
2021/08/14 01:01:07;;;;;;;9.27;7.95;;;;;;;18.77;70.18;99486.47;2618437;54;20077;-66
2021/08/14 01:03:39;;;;;;;8.35;7.45;;;;;;;18.79;70.71;99481.72;2618740;54;20046;-66
2021/08/14 01:06:09;;;;;;;11.02;9.20;;;;;;;18.75;70.26;99476.00;2618895;54;20049;-67
2021/08/14 01:08:38;;;;;;;10.02;8.73;;;;;;;18.64;70.41;99473.28;2617986;54;20178;-66
2021/08/14 01:11:08;;;;;;;9.55;7.93;;;;;;;18.54;70.99;99482.69;2617680;54;20034;-66
2021/08/14 01:13:38;;;;;;;11.25;8.25;;;;;;;18.48;70.73;99477.41;2618442;54;20035;-67
2021/08/14 01:16:08;;;;;;;8.38;7.57;;;;;;;18.44;70.83;99481.59;2618306;54;20043;-67
2021/08/14 01:18:42;;;;;;;9.30;8.27;;;;;;;18.43;70.78;99477.28;2618150;54;20023;-67
2021/08/14 01:21:19;;;;;;;11.43;8.52;;;;;;;18.42;71.43;99476.47;2618480;54;20026;-66
2021/08/14 01:23:49;;;;;;;11.18;8.35;;;;;;;18.49;71.44;99477.19;2619626;54;20023;-67
2021/08/14 01:26:19;;;;;;;9.98;7.18;;;;;;;18.53;70.81;99475.69;2619590;54;20038;-66
2021/08/14 01:28:51;;;;;;;13.80;8.60;;;;;;;18.53;71.01;99480.22;2619206;54;20090;-65
2021/08/14 01:31:21;;;;;;;8.68;7.82;;;;;;;18.58;70.62;99479.56;2619265;54;20111;-65
2021/08/14 01:33:51;;;;;;;11.70;8.45;;;;;;;18.56;70.46;99475.22;2619200;54;20051;-65
2021/08/14 01:36:20;;;;;;;8.32;7.53;;;;;;;18.39;71.01;99470.75;2618168;54;20034;-65
2021/08/14 01:38:52;;;;;;;10.52;7.60;;;;;;;18.44;71.42;99471.69;2619049;54;20074;-66
2021/08/14 01:41:24;;;;;;;9.40;8.35;;;;;;;18.43;70.73;99475.41;2618850;54;20049;-66
2021/08/14 01:43:59;;;;;;;9.82;8.00;;;;;;;18.37;71.29;99478.16;2617995;47;20023;-66
2021/08/14 01:46:31;;;;;;;10.57;7.90;;;;;;;18.31;71.21;99474.56;2618416;54;20030;-66
2021/08/14 01:49:01;;;;;;;11.73;7.78;;;;;;;18.25;71.02;99470.94;2619094;54;20098;-66
2021/08/14 01:51:32;;;;;;;10.80;8.30;;;;;;;18.13;71.21;99469.25;2618891;54;20070;-65
2021/08/14 01:54:04;;;;;;;9.43;8.52;;;;;;;18.05;71.62;99468.50;2619847;39;20410;-66
2021/08/14 01:56:34;;;;;;;9.50;8.50;;;;;;;17.95;72.06;99468.19;2619180;54;20223;-66
2021/08/14 01:59:07;;;;;;;12.40;8.93;;;;;;;17.85;72.13;99467.94;2618827;54;20042;-65
2021/08/14 02:01:37;;;;;;;8.73;7.67;;;;;;;17.89;73.01;99466.44;2619403;54;20026;-66
2021/08/14 02:04:07;;;;;;;10.38;8.45;;;;;;;17.99;72.43;99466.72;2619204;54;20126;-66
2021/08/14 02:06:37;;;;;;;9.90;7.82;;;;;;;18.05;71.97;99465.81;2619000;54;20086;-66
2021/08/14 02:09:07;;;;;;;8.98;8.05;;;;;;;17.99;72.02;99468.56;2619485;54;20062;-66
2021/08/14 02:11:38;;;;;;;12.52;8.60;;;;;;;17.98;71.73;99462.41;2618507;47;20034;-65
2021/08/14 02:14:09;;;;;;;9.45;8.55;;;;;;;17.91;71.85;99460.84;2619312;54;20034;-66
2021/08/14 02:16:38;;;;;;;8.48;7.57;;;;;;;17.75;72.34;99468.44;2618851;54;20034;-66
2021/08/14 02:19:09;;;;;;;10.40;7.75;;;;;;;17.85;72.75;99461.75;2619246;54;20046;-66
2021/08/14 02:21:39;;;;;;;10.32;7.35;;;;;;;17.91;72.58;99461.66;2619113;54;20061;-65
2021/08/14 02:24:08;;;;;;;9.85;8.85;;;;;;;17.92;71.88;99460.66;2619172;54;20079;-65
2021/08/14 02:26:38;;;;;;;10.98;8.70;;;;;;;17.77;71.96;99457.53;2619585;31;20522;-65
2021/08/14 02:29:09;;;;;;;12.38;8.30;;;;;;;17.71;72.41;99458.38;2619568;39;20517;-65
2021/08/14 02:31:38;;;;;;;13.20;9.48;;;;;;;17.66;72.67;99472.41;2618890;54;20050;-67
2021/08/14 02:34:08;;;;;;;9.57;8.27;;;;;;;17.59;72.76;99466.31;2619481;39;20453;-67
2021/08/14 02:36:37;;;;;;;10.63;8.48;;;;;;;17.57;72.69;99463.06;2618901;54;20046;-66
2021/08/14 02:39:07;;;;;;;9.75;8.75;;;;;;;17.60;72.54;99454.59;2619658;39;20196;-66
2021/08/14 02:41:37;;;;;;;9.98;8.98;;;;;;;17.59;72.49;99460.97;2618509;54;20118;-66
2021/08/14 02:44:08;;;;;;;11.85;8.32;;;;;;;17.50;73.03;99452.44;2618956;54;20201;-66
2021/08/14 02:46:38;;;;;;;11.27;8.60;;;;;;;17.43;73.21;99449.03;2619354;31;20471;-65
2021/08/14 02:49:07;;;;;;;9.82;8.35;;;;;;;17.46;73.30;99451.22;2618128;54;20038;-66
2021/08/14 02:51:37;;;;;;;11.15;9.27;;;;;;;17.42;72.90;99450.03;2618775;54;20790;-68
2021/08/14 02:54:07;;;;;;;12.05;8.20;;;;;;;17.35;72.91;99446.66;2619061;54;20077;-66
2021/08/14 02:56:36;;;;;;;8.38;7.43;;;;;;;17.34;73.32;99447.66;2618028;47;20125;-67
2021/08/14 02:59:06;;;;;;;12.90;8.98;;;;;;;17.33;73.31;99448.69;2619418;39;20430;-67
2021/08/14 03:01:37;;;;;;;12.32;8.73;;;;;;;17.29;73.46;99448.31;2618868;54;20038;-67
2021/08/14 03:04:07;;;;;;;10.75;8.30;;;;;;;17.22;73.11;99444.88;2618861;54;20031;-66
2021/08/14 03:06:36;;;;;;;9.48;8.48;;;;;;;17.18;73.45;99445.56;2617860;47;20031;-66
2021/08/14 03:09:08;;;;;;;9.02;8.10;;;;;;;17.17;73.48;99450.09;2618779;54;20039;-66
2021/08/14 03:11:38;;;;;;;12.00;8.85;;;;;;;17.15;73.65;99443.34;2618893;54;20150;-65
2021/08/14 03:14:08;;;;;;;10.15;8.07;;;;;;;17.19;73.56;99448.03;2618446;47;20042;-66
2021/08/14 03:16:39;;;;;;;9.60;7.88;;;;;;;17.24;73.64;99437.50;2618618;54;20546;-66
2021/08/14 03:19:08;;;;;;;13.40;7.65;;;;;;;17.26;73.77;99446.09;2618336;47;20158;-66
2021/08/14 03:21:38;;;;;;;9.50;7.43;;;;;;;17.31;73.43;99445.44;2618949;54;20042;-67
2021/08/14 03:24:08;;;;;;;8.43;7.55;;;;;;;17.34;73.13;99443.13;2618088;54;20569;-66
2021/08/14 03:26:37;;;;;;;10.93;7.93;;;;;;;17.39;72.57;99447.00;2617959;54;20129;-67
2021/08/14 03:29:07;;;;;;;8.70;7.60;;;;;;;17.36;73.09;99450.13;2618971;54;20142;-66
2021/08/14 03:31:36;;;;;;;8.38;7.57;;;;;;;17.39;72.75;99441.66;2617998;47;20035;-66
2021/08/14 03:34:07;;;;;;;8.85;6.95;;;;;;;17.44;72.43;99447.97;2618833;54;20030;-67
2021/08/14 03:36:37;;;;;;;8.07;6.38;;;;;;;17.46;72.09;99445.88;2618599;54;20565;-67
2021/08/14 03:39:06;;;;;;;10.15;7.28;;;;;;;17.43;72.46;99449.03;2618782;54;20085;-67
2021/08/14 03:41:37;;;;;;;7.63;6.72;;;;;;;17.36;72.40;99447.47;2618783;54;20026;-67
2021/08/14 03:44:07;;;;;;;8.70;7.80;;;;;;;17.34;72.59;99450.31;2618229;47;20030;-67
2021/08/14 03:46:37;;;;;;;9.60;7.22;;;;;;;17.34;72.17;99453.00;2618351;54;20546;-66
2021/08/14 03:49:08;;;;;;;10.55;7.50;;;;;;;17.19;72.64;99453.38;2618685;54;20141;-67
2021/08/14 03:51:37;;;;;;;7.93;7.03;;;;;;;16.98;73.56;99451.91;2618650;54;20580;-67
2021/08/14 03:54:07;;;;;;;10.13;7.70;;;;;;;16.94;73.64;99448.03;2618808;54;20045;-66
2021/08/14 03:56:37;;;;;;;10.00;7.68;;;;;;;16.97;73.71;99447.56;2618013;47;20063;-66
2021/08/14 03:59:06;;;;;;;8.85;7.85;;;;;;;17.04;73.57;99443.00;2618679;54;20082;-67
2021/08/14 04:01:36;;;;;;;9.23;7.80;;;;;;;17.09;73.37;99447.69;2618952;54;20038;-66
2021/08/14 04:04:07;;;;;;;12.82;8.30;;;;;;;17.11;72.81;99442.97;2618450;54;20038;-67
2021/08/14 04:06:37;;;;;;;10.02;7.57;;;;;;;17.08;72.93;99440.72;2618455;54;20038;-67
2021/08/14 04:09:07;;;;;;;8.55;7.70;;;;;;;17.11;72.70;99447.50;2619051;54;20031;-67
2021/08/14 04:11:36;;;;;;;8.75;7.78;;;;;;;17.09;73.05;99439.69;2618839;54;20033;-66
2021/08/14 04:14:06;;;;;;;9.40;7.55;;;;;;;17.13;73.21;99442.72;2618575;54;20057;-66
2021/08/14 04:16:36;;;;;;;9.45;8.45;;;;;;;17.19;73.00;99447.22;2618180;47;20034;-66
2021/08/14 04:19:05;;;;;;;9.13;7.88;;;;;;;17.19;72.39;99441.88;2618900;54;20053;-67
2021/08/14 04:21:37;;;;;;;11.27;7.25;;;;;;;17.15;72.53;99441.47;2618245;54;20049;-66
2021/08/14 04:24:07;;;;;;;8.65;7.55;;;;;;;17.13;72.36;99448.06;2618852;54;20126;-66
2021/08/14 04:26:36;;;;;;;10.18;7.78;;;;;;;17.06;72.43;99454.31;2619241;54;20597;-69
2021/08/14 04:29:06;;;;;;;9.38;7.93;;;;;;;16.95;72.94;99448.84;2619404;54;20053;-66
2021/08/14 04:31:36;;;;;;;13.23;8.13;;;;;;;16.92;73.09;99450.09;2619414;54;20083;-67
2021/08/14 04:34:05;;;;;;;11.98;7.80;;;;;;;16.94;73.10;99456.06;2618478;47;20023;-66
2021/08/14 04:36:36;;;;;;;10.40;8.60;;;;;;;16.97;73.19;99449.44;2619019;54;20038;-66
2021/08/14 04:39:06;;;;;;;8.43;7.35;;;;;;;16.91;72.56;99447.66;2618913;54;20069;-66
2021/08/14 04:41:36;;;;;;;9.60;7.93;;;;;;;16.86;73.42;99447.47;2619525;54;20034;-67
2021/08/14 04:44:06;;;;;;;10.02;8.48;;;;;;;16.72;73.36;99450.22;2621074;54;20093;-65
2021/08/14 04:46:35;;;;;;;9.45;7.63;;;;;;;16.81;73.51;99445.44;2620540;54;20035;-66
2021/08/14 04:49:05;;;;;;;10.13;7.72;;;;;;;16.83;73.48;99451.41;2620716;54;20060;-68
2021/08/14 04:51:34;;;;;;;9.52;8.05;;;;;;;16.81;73.31;99450.78;2620959;54;20077;-66
2021/08/14 04:54:09;;;;;;;9.00;7.18;;;;;;;16.81;73.62;99446.25;2620871;39;20462;-66
2021/08/14 04:56:38;;;;;;;9.43;8.45;;;;;;;16.84;72.95;99448.50;2620685;54;20078;-68
2021/08/14 04:59:08;;;;;;;8.90;7.85;;;;;;;16.84;73.15;99442.34;2620476;31;20507;-66
2021/08/14 05:01:37;;;;;;;10.43;8.73;;;;;;;16.89;73.21;99442.50;2619241;54;20046;-65
2021/08/14 05:04:07;;;;;;;10.52;8.48;;;;;;;16.95;73.25;99455.00;2619134;54;20034;-64
2021/08/14 05:06:40;;;;;;;8.98;8.02;;;;;;;16.96;72.75;99447.81;2619246;39;20714;-64
2021/08/14 05:09:10;;;;;;;10.40;8.00;;;;;;;16.90;73.20;99440.66;2619171;39;20441;-65
2021/08/14 05:11:40;;;;;;;10.20;8.10;;;;;;;16.95;73.07;99448.84;2619421;54;20034;-65
2021/08/14 05:14:10;;;;;;;8.13;7.32;;;;;;;16.94;72.92;99445.38;2619546;54;20038;-65
2021/08/14 05:16:39;;;;;;;8.32;7.05;;;;;;;16.99;72.81;99445.53;2618979;54;20065;-65
2021/08/14 05:19:09;;;;;;;11.15;7.32;;;;;;;17.07;73.15;99450.59;2623126;54;20031;-65
2021/08/14 05:21:39;;;;;;;42.58;35.50;;;;;;;17.17;72.32;99452.75;2622335;54;20026;-65
2021/08/14 05:24:10;;;;;;;10.43;7.80;;;;;;;17.22;72.04;99444.06;2621730;54;20034;-65
2021/08/14 05:26:42;;;;;;;10.23;7.72;;;;;;;17.19;71.99;99445.34;2622621;54;20034;-65
2021/08/14 05:29:12;;;;;;;7.93;6.82;;;;;;;17.17;72.20;99444.75;2622830;54;20038;-65
2021/08/14 05:31:41;;;;;;;9.20;7.93;;;;;;;17.21;72.17;99453.94;2624753;39;20407;-66
2021/08/14 05:34:11;;;;;;;8.10;7.10;;;;;;;17.27;71.79;99446.94;2623575;39;20433;-66
2021/08/14 05:36:40;;;;;;;7.63;6.85;;;;;;;17.32;71.76;99453.22;2622585;54;20063;-64
2021/08/14 05:39:11;;;;;;;11.98;6.70;;;;;;;17.40;71.81;99452.13;2621722;39;20093;-65
2021/08/14 05:41:42;;;;;;;8.35;6.93;;;;;;;17.47;71.52;99450.22;2619587;54;20533;-64
2021/08/14 05:44:12;;;;;;;7.97;7.05;;;;;;;17.62;71.09;99449.84;2619413;54;20026;-65
2021/08/14 05:46:42;;;;;;;9.00;6.85;;;;;;;17.61;70.81;99450.06;2618227;46;20136;-66
2021/08/14 05:49:12;;;;;;;9.48;6.78;;;;;;;17.66;70.84;99447.53;2618589;47;20525;-66
2021/08/14 05:51:41;;;;;;;8.05;6.70;;;;;;;17.72;70.98;99452.81;2618141;54;20042;-66
2021/08/14 05:54:19;;;;;;;10.75;7.25;;;;;;;17.80;70.58;99436.50;2618805;54;20069;-64
2021/08/14 05:56:49;;;;;;;9.15;6.90;;;;;;;17.93;70.56;99450.75;2618483;54;20042;-65
2021/08/14 05:59:19;;;;;;;8.90;7.22;;;;;;;18.00;70.35;99452.31;2618192;47;20057;-64
2021/08/14 06:01:49;;;;;;;8.40;7.60;;;;;;;18.07;70.42;99450.34;2618764;54;20041;-64
2021/08/14 06:04:19;;;;;;;7.43;6.28;;;;;;;18.21;69.76;99445.66;2618793;54;20073;-66
2021/08/14 06:06:48;;;;;;;7.85;7.00;;;;;;;18.33;69.65;99445.72;2617492;54;20526;-65
2021/08/14 06:09:19;;;;;;;16.77;12.30;;;;;;;18.49;69.02;99449.59;2619628;31;20440;-65
2021/08/14 06:11:49;;;;;;;9.32;8.32;;;;;;;18.45;68.60;99443.06;2618508;54;20566;-65
2021/08/14 06:14:19;;;;;;;7.82;6.95;;;;;;;18.54;69.32;99436.34;2618672;54;20638;-65
2021/08/14 06:16:49;;;;;;;9.60;7.57;;;;;;;18.67;69.06;99436.13;2617555;47;20022;-64
2021/08/14 06:19:18;;;;;;;8.38;6.45;;;;;;;18.83;68.45;99434.69;2618568;54;20026;-66
2021/08/14 06:21:48;;;;;;;9.15;6.82;;;;;;;18.86;67.70;99444.94;2618468;54;20030;-65
2021/08/14 06:24:19;;;;;;;8.63;7.13;;;;;;;18.74;68.08;99441.44;2618305;54;20069;-65
2021/08/14 06:26:49;;;;;;;9.15;8.23;;;;;;;18.80;68.15;99443.19;2617820;54;20560;-65
2021/08/14 06:29:18;;;;;;;9.60;8.55;;;;;;;18.92;67.86;99446.69;2618178;54;20037;-66
2021/08/14 06:31:48;;;;;;;11.48;8.23;;;;;;;19.00;68.17;99440.19;2618845;39;20411;-66
2021/08/14 06:34:18;;;;;;;11.88;7.10;;;;;;;18.98;67.75;99448.47;2618581;54;20554;-66
2021/08/14 06:36:47;;;;;;;9.98;7.97;;;;;;;19.03;68.04;99443.22;2617652;39;20198;-66
2021/08/14 06:39:17;;;;;;;9.38;7.32;;;;;;;19.14;67.97;99446.13;2618084;54;20054;-66
2021/08/14 06:41:50;;;;;;;9.65;6.63;;;;;;;19.23;68.02;99448.22;2617881;47;20033;-65
2021/08/14 06:44:20;;;;;;;7.50;6.30;;;;;;;19.33;67.73;99441.47;2618605;54;20046;-65
2021/08/14 06:46:50;;;;;;;6.78;5.90;;;;;;;19.39;67.55;99446.72;2618287;54;20034;-65
2021/08/14 06:49:19;;;;;;;7.45;6.65;;;;;;;19.46;67.42;99443.91;2618008;54;20038;-65
2021/08/14 06:51:49;;;;;;;8.25;6.30;;;;;;;19.49;67.81;99448.78;2618032;47;20027;-65
2021/08/14 06:54:19;;;;;;;8.85;7.03;;;;;;;19.62;67.80;99448.56;2618498;54;20034;-65
2021/08/14 06:56:50;;;;;;;11.80;9.02;;;;;;;19.65;67.23;99447.28;2618192;54;20558;-65
2021/08/14 06:59:20;;;;;;;8.75;6.90;;;;;;;19.74;66.82;99444.00;2618542;54;20033;-65
2021/08/14 07:01:49;;;;;;;8.00;6.70;;;;;;;19.79;65.70;99438.72;2618588;54;20085;-65
2021/08/14 07:04:21;;;;;;;7.63;6.85;;;;;;;19.83;66.31;99443.63;2618334;54;20078;-65
2021/08/14 07:06:51;;;;;;;9.20;7.88;;;;;;;19.93;66.18;99443.84;2617843;54;20039;-65
2021/08/14 07:09:21;;;;;;;7.93;6.38;;;;;;;20.08;65.46;99437.94;2618376;54;20038;-65
2021/08/14 07:11:52;;;;;;;7.70;6.50;;;;;;;20.16;65.37;99448.31;2618850;39;20453;-65
2021/08/14 07:14:22;;;;;;;9.18;6.72;;;;;;;20.23;65.32;99447.13;2617954;47;20030;-65
2021/08/14 07:16:51;;;;;;;6.30;5.38;;;;;;;20.35;65.49;99444.38;2617961;54;20550;-65
2021/08/14 07:19:21;;;;;;;8.30;6.43;;;;;;;20.49;64.90;99447.59;2617904;47;20038;-65
2021/08/14 07:21:51;;;;;;;7.88;6.95;;;;;;;20.64;64.00;99447.06;2618298;54;20078;-65
2021/08/14 07:24:24;;;;;;;8.50;6.50;;;;;;;20.61;63.01;99445.66;2617820;54;20023;-65
2021/08/14 07:26:56;;;;;;;9.38;6.57;;;;;;;20.61;63.63;99447.53;2617851;54;20050;-65
2021/08/14 07:29:27;;;;;;;8.25;7.00;;;;;;;20.64;63.94;99444.38;2618313;54;20050;-65
2021/08/14 07:31:56;;;;;;;10.70;9.55;;;;;;;20.70;63.53;99441.56;2617764;47;20023;-65
2021/08/14 07:34:26;;;;;;;9.10;7.15;;;;;;;20.76;62.98;99445.13;2618113;54;20041;-65
2021/08/14 07:36:55;;;;;;;6.72;6.03;;;;;;;20.87;63.54;99448.81;2618339;54;20034;-65
2021/08/14 07:39:25;;;;;;;9.40;7.03;;;;;;;21.00;63.12;99445.78;2618252;54;20545;-65
2021/08/14 07:41:56;;;;;;;11.60;9.98;;;;;;;21.06;62.39;99442.09;2618526;54;20026;-65
2021/08/14 07:44:26;;;;;;;10.40;9.05;;;;;;;21.18;62.65;99450.06;2618152;54;20039;-65
2021/08/14 07:47:16;;;;;;;7.22;6.53;;;;;;;21.22;63.00;99441.28;2618244;54;20038;-64
2021/08/14 07:49:45;;;;;;;8.18;6.22;;;;;;;21.29;63.15;99441.09;2617664;54;20067;-64
2021/08/14 07:52:15;;;;;;;7.68;6.50;;;;;;;21.49;62.45;99444.13;2618452;54;20030;-64
2021/08/14 07:54:45;;;;;;;7.82;5.72;;;;;;;21.51;62.74;99441.16;2618619;54;20039;-64
2021/08/14 07:57:16;;;;;;;6.00;5.50;;;;;;;21.60;62.48;99434.31;2617888;54;20082;-65
2021/08/14 07:59:46;;;;;;;6.70;5.97;;;;;;;21.73;61.39;99436.63;2618177;54;20033;-65
2021/08/14 08:02:16;;;;;;;10.77;7.18;;;;;;;21.81;61.12;99432.69;2619223;39;20731;-65
2021/08/14 08:04:46;;;;;;;7.10;6.05;;;;;;;21.93;60.84;99435.25;2618413;54;20034;-65
2021/08/14 08:07:15;;;;;;;8.30;7.30;;;;;;;22.11;60.86;99428.72;2619120;54;20053;-65
2021/08/14 08:09:45;;;;;;;6.20;5.40;;;;;;;22.25;60.82;99430.81;2618661;54;20046;-65
2021/08/14 08:12:16;;;;;;;6.53;5.63;;;;;;;22.41;61.17;99420.16;2618619;54;20046;-65
2021/08/14 08:14:45;;;;;;;7.63;6.60;;;;;;;22.58;59.84;99423.56;2618785;39;20402;-65
2021/08/14 08:17:15;;;;;;;7.05;5.57;;;;;;;22.61;59.46;99420.34;2619290;54;20034;-63
2021/08/14 08:19:45;;;;;;;9.25;6.50;;;;;;;22.70;59.18;99418.00;2619713;54;20042;-64
2021/08/14 08:22:14;;;;;;;8.75;5.85;;;;;;;22.80;58.60;99425.34;2619297;54;20067;-64
2021/08/14 08:24:44;;;;;;;6.88;5.28;;;;;;;22.88;59.05;99420.31;2618532;54;20115;-64
2021/08/14 08:27:15;;;;;;;6.65;5.95;;;;;;;23.08;58.34;99421.56;2617948;54;20058;-64
2021/08/14 08:29:44;;;;;;;5.75;5.20;;;;;;;23.23;58.19;99416.28;2618941;54;20042;-64
2021/08/14 08:32:14;;;;;;;11.70;5.95;;;;;;;23.34;57.62;99414.44;2619438;39;20410;-64
2021/08/14 08:34:44;;;;;;;7.97;5.40;;;;;;;23.50;57.00;99413.44;2618664;54;20115;-64
2021/08/14 08:37:13;;;;;;;6.40;5.72;;;;;;;23.55;56.53;99405.34;2617862;47;20134;-64
2021/08/14 08:39:43;;;;;;;8.93;5.15;;;;;;;23.66;56.59;99409.75;2619548;39;20458;-64
2021/08/14 08:42:12;;;;;;;5.80;5.20;;;;;;;23.83;56.35;99406.03;2618819;54;20063;-66
2021/08/14 08:44:43;;;;;;;5.38;4.80;;;;;;;23.90;56.63;99396.63;2619537;39;20422;-64
2021/08/14 08:47:13;;;;;;;9.95;5.45;;;;;;;23.97;56.14;99399.91;2618979;54;20110;-64
2021/08/14 08:49:52;;;;;;;6.68;5.55;;;;;;;24.10;55.40;99403.16;2619116;54;20031;-64
2021/08/14 08:52:23;;;;;;;10.75;7.55;;;;;;;24.23;54.00;99397.25;2619191;54;20067;-64
2021/08/14 08:54:54;;;;;;;6.25;4.72;;;;;;;24.25;54.62;99395.09;2620695;54;20597;-64
2021/08/14 08:57:24;;;;;;;6.60;5.57;;;;;;;24.31;54.31;99385.91;2620669;47;20033;-64
2021/08/14 08:59:57;;;;;;;6.32;5.55;;;;;;;24.42;54.40;99389.47;2620436;54;20034;-66
2021/08/14 09:02:29;;;;;;;6.25;5.35;;;;;;;24.48;53.84;99387.56;2619441;54;20031;-66
2021/08/14 09:05:14;;;;;;;6.00;4.78;;;;;;;24.48;53.85;99387.56;2618781;54;20023;-66
2021/08/14 09:07:45;;;;;;;7.65;5.95;;;;;;;24.52;54.29;99385.94;2618675;54;20037;-66
2021/08/14 09:10:16;;;;;;;7.70;5.47;;;;;;;24.63;53.13;99384.88;2619053;54;20581;-66
2021/08/14 09:12:47;;;;;;;8.30;5.25;;;;;;;24.71;53.29;99382.44;2619049;54;20042;-66
2021/08/14 09:15:30;;;;;;;7.35;5.85;;;;;;;24.81;53.04;99386.22;2618835;54;20061;-66
2021/08/14 09:18:02;;;;;;;5.65;5.05;;;;;;;24.92;52.49;99377.81;2618393;54;20568;-66
2021/08/14 09:20:33;;;;;;;5.38;4.82;;;;;;;24.99;52.31;99374.03;2619316;54;20031;-66
2021/08/14 09:23:06;;;;;;;5.95;4.90;;;;;;;25.04;52.32;99377.53;2619208;54;20041;-66
2021/08/14 09:25:43;;;;;;;8.20;6.35;;;;;;;25.09;52.19;99380.25;2618630;54;20030;-66
2021/08/14 09:28:14;;;;;;;6.18;5.30;;;;;;;25.23;51.89;99377.81;2618783;54;20038;-66
2021/08/14 09:30:50;;;;;;;6.25;5.65;;;;;;;25.36;50.92;99373.69;2619411;46;20686;-66
2021/08/14 09:33:23;;;;;;;6.53;5.07;;;;;;;25.41;51.60;99369.06;2619231;54;20037;-66
2021/08/14 09:36:01;;;;;;;7.03;5.72;;;;;;;25.54;51.36;99367.66;2619428;54;20038;-67
2021/08/14 09:38:43;;;;;;;7.00;6.15;;;;;;;25.74;49.62;99366.75;2619063;54;20034;-66
2021/08/14 09:41:14;;;;;;;8.90;6.97;;;;;;;25.74;49.85;99355.94;2619097;54;20061;-66
2021/08/14 09:43:45;;;;;;;6.90;5.38;;;;;;;25.69;49.86;99359.47;2619055;54;20081;-66
2021/08/14 09:46:17;;;;;;;8.05;5.10;;;;;;;25.78;49.62;99356.22;2619204;54;20034;-65
2021/08/14 09:48:55;;;;;;;8.93;6.05;;;;;;;26.04;48.89;99352.25;2619394;54;20031;-66
2021/08/14 09:51:30;;;;;;;5.53;5.03;;;;;;;26.14;47.87;99354.09;2619379;54;20034;-65
2021/08/14 09:54:01;;;;;;;7.65;5.40;;;;;;;26.08;47.81;99350.59;2619333;54;20141;-66
2021/08/14 09:56:34;;;;;;;6.00;5.40;;;;;;;26.05;47.90;99350.38;2618928;54;20035;-66
2021/08/14 09:59:05;;;;;;;5.80;4.97;;;;;;;26.06;47.32;99357.41;2618716;47;20026;-65
2021/08/14 10:01:39;;;;;;;6.63;5.00;;;;;;;26.16;47.85;99347.28;2619358;54;20034;-65
2021/08/14 10:04:10;;;;;;;6.63;5.85;;;;;;;26.40;46.69;99341.97;2618992;54;20022;-65
2021/08/14 10:06:41;;;;;;;5.63;5.07;;;;;;;26.46;46.60;99344.69;2618525;47;20034;-66
2021/08/14 10:09:12;;;;;;;5.82;4.60;;;;;;;26.40;46.07;99338.44;2619643;54;20026;-66
2021/08/14 10:11:42;;;;;;;9.57;5.70;;;;;;;26.45;45.48;99332.22;2619886;54;20126;-66
2021/08/14 10:14:13;;;;;;;5.65;5.15;;;;;;;26.54;45.33;99330.53;2619742;47;20034;-65
2021/08/14 10:16:45;;;;;;;9.43;6.18;;;;;;;26.65;45.24;99332.84;2622119;46;20537;-65
2021/08/14 10:19:16;;;;;;;10.43;5.53;;;;;;;26.70;44.80;99325.75;2622016;54;20133;-65
2021/08/14 10:21:49;;;;;;;5.63;5.05;;;;;;;26.75;44.92;99321.09;2623020;54;20026;-66
2021/08/14 10:24:18;;;;;;;7.53;4.97;;;;;;;26.95;44.46;99322.78;2622468;54;20034;-66
2021/08/14 10:26:49;;;;;;;7.43;5.43;;;;;;;26.92;43.97;99323.38;2622556;54;20558;-66
2021/08/14 10:29:44;;;;;;;6.00;4.95;;;;;;;26.87;43.88;99321.50;2622854;54;20039;-65
2021/08/14 10:32:48;;;;;;;5.10;4.60;;;;;;;26.93;43.44;99314.94;2623090;54;20038;-66
2021/08/14 10:35:43;;;;;;;5.07;4.38;;;;;;;26.92;42.25;99316.03;2619524;54;20030;-66
2021/08/14 10:38:38;;;;;;;7.15;4.93;;;;;;;27.08;42.68;99310.44;2618727;54;20141;-66
2021/08/14 10:41:08;;;;;;;4.80;3.92;;;;;;;27.18;41.30;99313.06;2619961;54;20026;-66
2021/08/14 10:43:59;;;;;;;4.95;4.45;;;;;;;27.25;41.33;99310.81;2619822;54;20038;-66
2021/08/14 10:46:41;;;;;;;6.07;4.50;;;;;;;27.35;40.91;99309.84;2619258;54;20042;-67
2021/08/14 10:49:14;;;;;;;7.65;4.78;;;;;;;27.36;40.49;99306.06;2619373;54;20030;-66
2021/08/14 10:52:14;;;;;;;6.38;4.95;;;;;;;27.42;40.18;99299.47;2619654;39;20426;-66
2021/08/14 10:55:06;;;;;;;8.13;4.85;;;;;;;27.50;40.78;99298.81;2619211;54;20026;-65
2021/08/14 10:58:17;;;;;;;4.85;4.22;;;;;;;27.61;41.23;99291.34;2619160;31;20538;-66
2021/08/14 11:00:48;;;;;;;4.93;4.53;;;;;;;27.59;40.76;99288.09;2619264;39;20458;-65
2021/08/14 11:03:20;;;;;;;6.18;4.78;;;;;;;27.59;39.76;99282.66;2618488;54;20554;-66
2021/08/14 11:05:52;;;;;;;4.82;4.32;;;;;;;27.57;38.69;99282.97;2617840;54;20026;-66
2021/08/14 11:08:31;;;;;;;5.07;4.30;;;;;;;27.59;38.94;99286.19;2618453;54;20052;-66
2021/08/14 11:11:04;;;;;;;5.15;4.65;;;;;;;27.71;38.37;99268.66;2618128;54;20018;-66
2021/08/14 11:14:09;;;;;;;5.15;4.05;;;;;;;27.73;39.12;99269.19;2618136;46;20078;-65
2021/08/14 11:16:59;;;;;;;6.55;5.03;;;;;;;27.84;38.42;99271.47;2618202;54;20041;-66
2021/08/14 11:19:45;;;;;;;6.57;4.97;;;;;;;27.96;37.88;99262.84;2617664;47;20030;-65
2021/08/14 11:22:25;;;;;;;4.95;4.45;;;;;;;27.92;38.23;99250.97;2618640;54;20034;-65
2021/08/14 11:24:56;;;;;;;6.63;4.70;;;;;;;28.00;38.44;99255.72;2618696;54;20174;-65
2021/08/14 11:27:27;;;;;;;5.88;4.22;;;;;;;28.16;37.93;99256.28;2617967;54;20608;-65
2021/08/14 11:29:59;;;;;;;5.35;4.60;;;;;;;28.23;38.07;99250.47;2618355;54;20041;-65
2021/08/14 11:32:30;;;;;;;5.80;4.75;;;;;;;28.30;38.53;99251.69;2617802;47;20034;-65
2021/08/14 11:35:01;;;;;;;4.93;4.53;;;;;;;28.35;38.81;99246.16;2618407;54;20038;-65
2021/08/14 11:37:32;;;;;;;5.32;4.40;;;;;;;28.49;38.14;99248.13;2618116;54;20061;-65
2021/08/14 11:40:05;;;;;;;7.20;5.10;;;;;;;28.52;38.35;99236.66;2617798;47;20031;-65
2021/08/14 11:42:35;;;;;;;6.15;4.90;;;;;;;28.63;38.29;99244.34;2618349;54;20063;-65
2021/08/14 11:45:05;;;;;;;5.80;4.78;;;;;;;28.60;38.76;99233.25;2618558;54;20050;-65
2021/08/14 11:47:38;;;;;;;4.95;4.55;;;;;;;28.51;38.93;99224.97;2617888;54;20122;-65
2021/08/14 11:50:11;;;;;;;5.85;5.25;;;;;;;28.44;38.92;99224.56;2618558;54;20574;-65
2021/08/14 11:52:42;;;;;;;5.47;5.00;;;;;;;28.43;39.08;99224.88;2618940;54;20042;-71